Time;durP1;ratioP1;P1;durP2;ratioP2;P2;SDS_P1;SDS_P2;PMS_P1;PMS_P2;Temp;Humidity;BMP_temperature;BMP_pressure;BME280_temperature;BME280_humidity;BME280_pressure;Samples;Min_cycle;Max_cycle;Signal;HPM_P1;HPM_P2
2023/12/03 00:00:39;;;;;;;38.67;23.70;;;;;;;;;;5020076;28;20399;-64
2023/12/03 00:03:04;;;;;;;41.50;25.58;;;;;;;;;;5019400;28;20458;-64
2023/12/03 00:05:29;;;;;;;39.70;24.20;;;;;;;;;;5022482;28;20741;-64
2023/12/03 00:07:55;;;;;;;41.50;25.60;;;;;;;;;;5028072;28;20409;-64
2023/12/03 00:10:20;;;;;;;43.50;25.23;;;;;;;;;;5027011;28;20445;-63
2023/12/03 00:12:45;;;;;;;42.43;25.47;;;;;;;;;;5028679;28;20539;-64
2023/12/03 00:15:10;;;;;;;46.40;27.53;;;;;;;;;;5027462;28;20423;-64
2023/12/03 00:17:36;;;;;;;44.53;26.52;;;;;;;;;;5027650;28;20594;-63
2023/12/03 00:20:01;;;;;;;42.97;26.20;;;;;;;;;;5028410;28;20407;-64
2023/12/03 00:22:26;;;;;;;39.87;24.57;;;;;;;;;;5022651;28;20405;-64
2023/12/03 00:24:52;;;;;;;43.73;25.70;;;;;;;;;;5020252;28;20519;-64
2023/12/03 00:27:17;;;;;;;44.97;26.73;;;;;;;;;;5019248;28;20855;-64
2023/12/03 00:29:42;;;;;;;45.50;26.30;;;;;;;;;;5027983;28;20470;-64
2023/12/03 00:32:08;;;;;;;44.03;26.27;;;;;;;;;;5027681;28;20769;-64
2023/12/03 00:34:33;;;;;;;42.08;26.13;;;;;;;;;;5026145;28;20409;-64
2023/12/03 00:36:58;;;;;;;44.50;26.27;;;;;;;;;;5029607;28;20403;-63
2023/12/03 00:39:24;;;;;;;44.90;25.57;;;;;;;;;;5027235;28;20500;-64
2023/12/03 00:41:49;;;;;;;40.90;24.63;;;;;;;;;;5027092;28;20926;-64
2023/12/03 00:44:14;;;;;;;45.80;26.03;;;;;;;;;;5024102;28;21041;-64
2023/12/03 00:46:40;;;;;;;43.10;25.17;;;;;;;;;;5021467;28;20491;-64
2023/12/03 00:49:05;;;;;;;44.90;25.27;;;;;;;;;;5018491;28;20852;-64
2023/12/03 00:51:30;;;;;;;42.63;25.87;;;;;;;;;;5023039;28;20924;-64
2023/12/03 00:53:55;;;;;;;44.57;25.10;;;;;;;;;;5028875;28;20405;-64
2023/12/03 00:56:21;;;;;;;42.63;24.60;;;;;;;;;;5025160;28;20398;-64
2023/12/03 00:58:46;;;;;;;43.63;25.37;;;;;;;;;;5027153;28;20819;-64
2023/12/03 01:01:11;;;;;;;45.97;26.67;;;;;;;;;;5029062;28;20406;-64
2023/12/03 01:03:36;;;;;;;45.10;25.83;;;;;;;;;;5027041;28;20433;-64
2023/12/03 01:06:02;;;;;;;48.37;26.97;;;;;;;;;;5025627;28;20901;-64
2023/12/03 01:08:27;;;;;;;45.73;25.83;;;;;;;;;;5020119;28;20465;-64
2023/12/03 01:10:52;;;;;;;55.10;28.23;;;;;;;;;;5019203;28;20416;-64
2023/12/03 01:13:18;;;;;;;49.70;26.80;;;;;;;;;;5018898;28;20488;-64
2023/12/03 01:15:43;;;;;;;54.70;28.33;;;;;;;;;;5027270;28;20411;-64
2023/12/03 01:18:10;;;;;;;54.73;28.40;;;;;;;;;;5027050;28;20399;-64
2023/12/03 01:20:35;;;;;;;51.58;27.60;;;;;;;;;;5026975;28;20469;-64
2023/12/03 01:23:01;;;;;;;55.60;28.13;;;;;;;;;;5025348;28;20994;-65
2023/12/03 01:25:26;;;;;;;55.97;28.10;;;;;;;;;;5029565;28;20399;-63
2023/12/03 01:27:51;;;;;;;57.30;28.80;;;;;;;;;;5026808;28;20475;-64
2023/12/03 01:30:17;;;;;;;63.40;29.53;;;;;;;;;;5020383;28;20449;-64
2023/12/03 01:32:42;;;;;;;53.83;27.00;;;;;;;;;;5020046;28;20406;-64
2023/12/03 01:35:08;;;;;;;57.67;27.07;;;;;;;;;;5005094;28;20429;-64
2023/12/03 01:37:33;;;;;;;60.58;28.45;;;;;;;;;;5022465;28;20412;-63
2023/12/03 01:39:58;;;;;;;53.80;26.53;;;;;;;;;;5027718;28;20407;-64
2023/12/03 01:42:24;;;;;;;52.57;25.33;;;;;;;;;;5028444;28;20409;-64
2023/12/03 01:44:50;;;;;;;51.00;25.95;;;;;;;;;;5026234;28;21580;-64
2023/12/03 01:47:15;;;;;;;54.78;25.75;;;;;;;;;;5033101;28;20877;-64
2023/12/03 01:49:40;;;;;;;56.70;26.87;;;;;;;;;;5028738;28;20409;-64
2023/12/03 01:52:06;;;;;;;47.40;24.90;;;;;;;;;;5022632;28;21246;-64
2023/12/03 01:54:36;;;;;;;50.35;24.80;;;;;;;;;;5018395;28;20406;-64
2023/12/03 01:57:01;;;;;;;53.10;25.98;;;;;;;;;;5019223;28;20410;-65
2023/12/03 01:59:26;;;;;;;54.30;24.80;;;;;;;;;;5021541;28;20413;-64
2023/12/03 02:01:52;;;;;;;51.57;25.73;;;;;;;;;;5025651;28;20403;-64
2023/12/03 02:04:17;;;;;;;54.90;26.83;;;;;;;;;;5026901;28;20435;-64
2023/12/03 02:06:42;;;;;;;53.60;24.87;;;;;;;;;;5026775;28;20430;-64
2023/12/03 02:09:07;;;;;;;47.83;23.80;;;;;;;;;;5025106;28;20437;-64
2023/12/03 02:11:33;;;;;;;48.37;24.90;;;;;;;;;;5025811;28;20418;-64
2023/12/03 02:13:58;;;;;;;51.40;25.23;;;;;;;;;;5026604;28;20757;-64
2023/12/03 02:16:24;;;;;;;47.67;23.33;;;;;;;;;;5010971;28;20406;-64
2023/12/03 02:18:49;;;;;;;51.30;24.80;;;;;;;;;;5018836;28;20445;-64
2023/12/03 02:21:14;;;;;;;47.90;24.73;;;;;;;;;;5019311;28;20421;-64
2023/12/03 02:23:39;;;;;;;51.53;24.40;;;;;;;;;;5030532;28;20693;-64
2023/12/03 02:26:05;;;;;;;53.73;26.37;;;;;;;;;;5025281;28;20430;-64
2023/12/03 02:28:31;;;;;;;49.30;24.60;;;;;;;;;;5024826;28;20394;-64
2023/12/03 02:30:57;;;;;;;52.37;25.00;;;;;;;;;;5027758;28;20501;-64
2023/12/03 02:33:22;;;;;;;46.03;23.98;;;;;;;;;;5024630;28;20413;-64
2023/12/03 02:35:47;;;;;;;49.90;24.57;;;;;;;;;;5025445;28;20416;-64
2023/12/03 02:38:13;;;;;;;54.83;27.03;;;;;;;;;;5020427;28;20411;-65
2023/12/03 02:40:39;;;;;;;69.00;28.17;;;;;;;;;;5017021;28;21010;-64
2023/12/03 02:43:04;;;;;;;51.30;26.00;;;;;;;;;;5016649;28;20433;-64
2023/12/03 02:45:29;;;;;;;46.03;24.20;;;;;;;;;;5023924;28;20399;-64
2023/12/03 02:47:57;;;;;;;51.63;26.20;;;;;;;;;;5025641;28;20413;-64
2023/12/03 02:50:23;;;;;;;55.00;26.52;;;;;;;;;;5024694;28;20487;-64
2023/12/03 02:52:48;;;;;;;51.03;25.00;;;;;;;;;;5025383;28;20898;-64
2023/12/03 02:55:13;;;;;;;52.90;25.77;;;;;;;;;;5026160;28;20421;-64
2023/12/03 02:57:39;;;;;;;48.17;25.03;;;;;;;;;;5025641;28;20493;-64
2023/12/03 03:00:05;;;;;;;48.53;25.30;;;;;;;;;;5014047;28;20420;-64
2023/12/03 03:02:32;;;;;;;50.58;25.83;;;;;;;;;;5016769;28;20407;-64
2023/12/03 03:04:57;;;;;;;47.53;25.67;;;;;;;;;;5021852;28;20456;-64
2023/12/03 03:07:22;;;;;;;49.43;25.70;;;;;;;;;;5019902;28;21000;-64
2023/12/03 03:09:47;;;;;;;48.90;25.50;;;;;;;;;;5024850;28;20453;-64
2023/12/03 03:12:13;;;;;;;53.77;26.80;;;;;;;;;;5026792;28;20419;-64
2023/12/03 03:14:38;;;;;;;49.57;27.23;;;;;;;;;;5025581;28;20405;-64
2023/12/03 03:17:03;;;;;;;61.03;28.87;;;;;;;;;;5023382;28;20564;-64
2023/12/03 03:19:28;;;;;;;54.40;27.03;;;;;;;;;;5026236;28;20451;-64
2023/12/03 03:21:54;;;;;;;54.13;27.50;;;;;;;;;;5022209;28;20400;-64
2023/12/03 03:24:19;;;;;;;57.17;28.87;;;;;;;;;;5016246;28;21162;-64
2023/12/03 03:26:44;;;;;;;47.50;25.57;;;;;;;;;;5017232;28;20402;-64
2023/12/03 03:29:10;;;;;;;54.40;27.90;;;;;;;;;;5022625;28;21149;-64
2023/12/03 03:31:35;;;;;;;44.97;24.67;;;;;;;;;;5023640;28;20470;-64
2023/12/03 03:34:00;;;;;;;51.87;26.77;;;;;;;;;;5024532;28;20407;-64
2023/12/03 03:36:25;;;;;;;44.50;24.47;;;;;;;;;;5026988;28;20425;-64
2023/12/03 03:38:51;;;;;;;46.57;26.07;;;;;;;;;;5024086;28;20481;-64
2023/12/03 03:41:16;;;;;;;46.85;25.63;;;;;;;;;;5023839;28;20422;-64
2023/12/03 03:43:41;;;;;;;46.10;26.70;;;;;;;;;;5024386;28;20918;-64
2023/12/03 03:46:06;;;;;;;46.20;26.70;;;;;;;;;;5017571;28;20544;-64
2023/12/03 03:48:32;;;;;;;46.03;26.50;;;;;;;;;;5014903;28;20841;-64
2023/12/03 03:50:57;;;;;;;47.60;27.23;;;;;;;;;;5016951;28;20442;-64
2023/12/03 03:53:23;;;;;;;43.37;25.90;;;;;;;;;;5023703;28;20895;-64
2023/12/03 03:55:48;;;;;;;41.93;26.27;;;;;;;;;;5024272;28;20967;-64
2023/12/03 03:58:13;;;;;;;40.75;26.17;;;;;;;;;;5022342;28;20454;-64
2023/12/03 04:00:39;;;;;;;43.03;26.13;;;;;;;;;;5026265;28;20893;-64
2023/12/03 04:03:04;;;;;;;46.35;27.23;;;;;;;;;;5023698;28;20479;-64
2023/12/03 04:05:30;;;;;;;38.57;25.13;;;;;;;;;;5022896;28;20856;-64
2023/12/03 04:07:55;;;;;;;41.53;25.77;;;;;;;;;;5021082;28;20401;-64
2023/12/03 04:10:21;;;;;;;43.08;27.00;;;;;;;;;;5008682;28;20409;-64
2023/12/03 04:12:48;;;;;;;41.83;27.42;;;;;;;;;;5014976;28;22379;-63
2023/12/03 04:15:13;;;;;;;33.90;24.07;;;;;;;;;;5021501;28;20411;-64
2023/12/03 04:17:39;;;;;;;36.35;25.23;;;;;;;;;;5027151;28;20399;-64
2023/12/03 04:20:04;;;;;;;35.77;25.73;;;;;;;;;;5021962;28;20548;-64
2023/12/03 04:22:30;;;;;;;37.30;26.02;;;;;;;;;;5023693;28;20398;-64
2023/12/03 04:24:55;;;;;;;36.47;25.87;;;;;;;;;;5026438;28;20521;-64
2023/12/03 04:27:20;;;;;;;36.47;25.33;;;;;;;;;;5027652;28;20447;-64
2023/12/03 04:29:46;;;;;;;35.63;25.30;;;;;;;;;;5022719;28;20399;-64
2023/12/03 04:32:11;;;;;;;37.13;26.42;;;;;;;;;;5020339;28;21065;-64
2023/12/03 04:34:38;;;;;;;35.80;25.33;;;;;;;;;;5025647;28;20416;-63
2023/12/03 04:37:03;;;;;;;34.97;25.23;;;;;;;;;;5020843;28;20403;-64
2023/12/03 04:39:29;;;;;;;35.70;25.43;;;;;;;;;;5029212;28;20437;-64
2023/12/03 04:41:55;;;;;;;33.03;24.63;;;;;;;;;;5029980;28;20414;-64
2023/12/03 04:44:20;;;;;;;37.97;26.03;;;;;;;;;;5026415;28;20867;-64
2023/12/03 04:46:45;;;;;;;34.10;24.77;;;;;;;;;;5028043;28;20494;-64
2023/12/03 04:49:11;;;;;;;33.40;24.63;;;;;;;;;;5028827;28;20552;-64
2023/12/03 04:51:36;;;;;;;33.87;24.60;;;;;;;;;;5027189;28;20521;-64
2023/12/03 04:54:01;;;;;;;33.03;24.37;;;;;;;;;;5018831;28;20419;-64
2023/12/03 04:56:27;;;;;;;32.87;24.70;;;;;;;;;;5020413;28;20888;-64
2023/12/03 04:58:52;;;;;;;30.37;22.70;;;;;;;;;;5025399;28;20722;-64
2023/12/03 05:01:18;;;;;;;31.92;23.75;;;;;;;;;;5031945;28;20449;-64
2023/12/03 05:03:43;;;;;;;32.37;23.27;;;;;;;;;;5026325;28;20996;-64
2023/12/03 05:06:08;;;;;;;34.27;23.63;;;;;;;;;;5027542;28;20422;-64
2023/12/03 05:08:34;;;;;;;33.43;22.83;;;;;;;;;;5027716;28;20410;-64
2023/12/03 05:11:02;;;;;;;32.53;23.03;;;;;;;;;;5027229;28;20582;-64
2023/12/03 05:13:27;;;;;;;31.85;23.10;;;;;;;;;;5028395;28;20403;-63
2023/12/03 05:15:52;;;;;;;30.83;22.10;;;;;;;;;;5025776;28;20816;-64
2023/12/03 05:18:18;;;;;;;31.50;22.10;;;;;;;;;;5018996;28;20422;-64
2023/12/03 05:20:43;;;;;;;28.97;21.20;;;;;;;;;;5019204;28;20411;-64
2023/12/03 05:23:08;;;;;;;28.57;20.30;;;;;;;;;;5024506;28;20438;-64
2023/12/03 05:25:34;;;;;;;31.27;21.37;;;;;;;;;;5026541;28;20490;-64
2023/12/03 05:27:59;;;;;;;28.87;20.97;;;;;;;;;;5026224;28;20479;-63
2023/12/03 05:30:25;;;;;;;28.23;20.57;;;;;;;;;;5027793;28;20403;-64
2023/12/03 05:32:50;;;;;;;27.63;19.65;;;;;;;;;;5041541;28;20405;-63
2023/12/03 05:35:16;;;;;;;27.93;20.60;;;;;;;;;;5048222;28;20513;-63
2023/12/03 05:37:41;;;;;;;27.48;19.80;;;;;;;;;;5047616;28;20421;-64
2023/12/03 05:40:07;;;;;;;26.60;19.13;;;;;;;;;;5046508;28;20768;-64
2023/12/03 05:42:32;;;;;;;27.95;18.83;;;;;;;;;;5048260;28;20474;-63
2023/12/03 05:44:57;;;;;;;27.37;18.47;;;;;;;;;;5048140;28;20402;-63
2023/12/03 05:47:23;;;;;;;28.33;18.53;;;;;;;;;;5046219;28;20496;-64
2023/12/03 05:49:48;;;;;;;26.88;17.92;;;;;;;;;;5048142;28;20410;-64
2023/12/03 05:52:14;;;;;;;26.40;18.13;;;;;;;;;;5047406;28;20995;-64
2023/12/03 05:54:41;;;;;;;25.67;17.40;;;;;;;;;;5047509;28;20392;-64
2023/12/03 05:57:07;;;;;;;26.50;17.90;;;;;;;;;;5046829;28;20409;-64
2023/12/03 05:59:32;;;;;;;26.60;17.57;;;;;;;;;;5047612;28;20734;-63
2023/12/03 06:01:58;;;;;;;27.80;18.33;;;;;;;;;;5048520;28;20397;-64
2023/12/03 06:04:23;;;;;;;27.90;19.08;;;;;;;;;;5044607;28;20408;-64
2023/12/03 06:06:48;;;;;;;30.53;19.10;;;;;;;;;;5048199;28;21162;-64
2023/12/03 06:09:14;;;;;;;28.73;19.00;;;;;;;;;;5047950;28;20418;-64
2023/12/03 06:11:39;;;;;;;27.20;18.23;;;;;;;;;;5045588;28;20459;-63
2023/12/03 06:14:04;;;;;;;26.90;18.73;;;;;;;;;;5027876;28;20420;-64
2023/12/03 06:16:30;;;;;;;26.60;18.33;;;;;;;;;;5025207;28;20914;-64
2023/12/03 06:18:56;;;;;;;27.90;18.33;;;;;;;;;;5025995;28;20456;-64
2023/12/03 06:21:22;;;;;;;25.57;17.53;;;;;;;;;;5025667;28;20393;-64
2023/12/03 06:23:47;;;;;;;26.42;18.30;;;;;;;;;;5018884;28;20413;-64
2023/12/03 06:26:12;;;;;;;25.67;17.80;;;;;;;;;;5017432;28;20407;-63
2023/12/03 06:28:38;;;;;;;27.87;18.67;;;;;;;;;;5020299;28;20488;-63
2023/12/03 06:31:05;;;;;;;26.37;17.90;;;;;;;;;;5025122;28;20403;-64
2023/12/03 06:33:30;;;;;;;28.63;18.83;;;;;;;;;;5025189;28;20434;-64
2023/12/03 06:35:55;;;;;;;27.40;17.97;;;;;;;;;;5026242;28;20562;-64
2023/12/03 06:38:20;;;;;;;27.60;18.63;;;;;;;;;;5025085;28;21003;-63
2023/12/03 06:40:46;;;;;;;27.93;18.50;;;;;;;;;;5024180;28;20451;-63
2023/12/03 06:43:11;;;;;;;29.83;18.90;;;;;;;;;;5024858;28;20423;-64
2023/12/03 06:45:37;;;;;;;28.63;18.43;;;;;;;;;;5020146;28;20420;-64
2023/12/03 06:48:03;;;;;;;30.38;18.98;;;;;;;;;;5015537;28;20918;-64
2023/12/03 06:50:28;;;;;;;30.42;18.77;;;;;;;;;;4999632;28;20923;-63
2023/12/03 06:52:53;;;;;;;27.10;18.40;;;;;;;;;;5025150;28;20398;-63
2023/12/03 06:55:19;;;;;;;27.20;18.90;;;;;;;;;;5024567;28;20414;-63
2023/12/03 06:57:44;;;;;;;25.80;17.53;;;;;;;;;;5025224;28;20476;-64
2023/12/03 07:00:10;;;;;;;30.50;20.98;;;;;;;;;;5023773;28;20485;-63
2023/12/03 07:02:35;;;;;;;34.60;21.73;;;;;;;;;;5020632;28;20403;-63
2023/12/03 07:05:00;;;;;;;31.50;20.33;;;;;;;;;;5026630;28;20499;-64
2023/12/03 07:07:26;;;;;;;30.53;20.63;;;;;;;;;;5020355;28;20979;-64
2023/12/03 07:09:51;;;;;;;31.23;20.93;;;;;;;;;;5016235;28;20403;-64
2023/12/03 07:12:17;;;;;;;30.27;20.53;;;;;;;;;;5016926;28;20405;-64
2023/12/03 07:14:42;;;;;;;32.65;21.02;;;;;;;;;;5020868;28;20798;-64
2023/12/03 07:17:08;;;;;;;32.72;21.02;;;;;;;;;;5030885;28;20406;-62
2023/12/03 07:19:33;;;;;;;32.40;21.33;;;;;;;;;;5045521;28;20402;-64
2023/12/03 07:21:58;;;;;;;30.90;21.03;;;;;;;;;;5044634;28;20482;-62
2023/12/03 07:24:24;;;;;;;33.10;21.67;;;;;;;;;;5046353;28;20393;-63
2023/12/03 07:26:49;;;;;;;32.33;21.10;;;;;;;;;;5046921;28;20389;-62
2023/12/03 07:29:17;;;;;;;31.53;20.20;;;;;;;;;;5043446;28;20439;-62
2023/12/03 07:31:42;;;;;;;31.67;20.90;;;;;;;;;;5046893;28;20439;-62
2023/12/03 07:34:07;;;;;;;30.57;20.70;;;;;;;;;;5046517;28;20424;-63
2023/12/03 07:36:33;;;;;;;30.03;20.27;;;;;;;;;;5044399;28;20811;-62
2023/12/03 07:38:58;;;;;;;32.63;21.97;;;;;;;;;;5045992;28;20420;-62
2023/12/03 07:41:23;;;;;;;32.93;21.27;;;;;;;;;;5046412;28;20396;-63
2023/12/03 07:43:49;;;;;;;33.53;20.57;;;;;;;;;;5045407;28;20867;-62
2023/12/03 07:46:17;;;;;;;34.63;21.93;;;;;;;;;;5044777;28;20416;-62
2023/12/03 07:48:42;;;;;;;34.08;21.67;;;;;;;;;;5046855;28;20492;-62
2023/12/03 07:51:09;;;;;;;32.37;21.37;;;;;;;;;;5045782;28;20559;-63
2023/12/03 07:53:34;;;;;;;33.78;21.77;;;;;;;;;;5044178;28;20405;-63
2023/12/03 07:56:00;;;;;;;34.80;22.13;;;;;;;;;;5046871;28;20401;-64
2023/12/03 07:58:25;;;;;;;33.47;21.70;;;;;;;;;;5045681;28;20927;-63
2023/12/03 08:00:50;;;;;;;35.33;22.23;;;;;;;;;;5045131;28;20486;-62
2023/12/03 08:03:15;;;;;;;34.93;22.33;;;;;;;;;;5045213;28;20421;-64
2023/12/03 08:05:41;;;;;;;31.77;20.43;;;;;;;;;;5047983;28;20432;-63
2023/12/03 08:08:06;;;;;;;33.47;20.73;;;;;;;;;;5049215;28;20401;-64
2023/12/03 08:10:31;;;;;;;33.50;21.40;;;;;;;;;;5048774;28;20482;-63
2023/12/03 08:12:56;;;;;;;33.53;21.03;;;;;;;;;;5049677;28;20408;-63
2023/12/03 08:15:22;;;;;;;36.00;21.57;;;;;;;;;;5050189;28;20397;-63
2023/12/03 08:17:47;;;;;;;31.80;19.93;;;;;;;;;;5047708;28;20413;-63
2023/12/03 08:20:12;;;;;;;33.70;20.53;;;;;;;;;;5048176;28;20409;-64
2023/12/03 08:22:38;;;;;;;32.13;19.83;;;;;;;;;;5050292;28;20930;-63
2023/12/03 08:25:03;;;;;;;30.87;20.17;;;;;;;;;;5046757;28;20785;-64
2023/12/03 08:27:28;;;;;;;31.58;20.05;;;;;;;;;;5049154;28;20777;-64
2023/12/03 08:29:54;;;;;;;30.63;19.03;;;;;;;;;;5050011;28;20395;-64
2023/12/03 08:32:20;;;;;;;32.70;20.10;;;;;;;;;;5048479;28;21014;-62
2023/12/03 08:34:46;;;;;;;31.00;19.45;;;;;;;;;;5048134;28;20404;-63
2023/12/03 08:37:11;;;;;;;33.77;21.37;;;;;;;;;;5049940;28;20406;-63
2023/12/03 08:39:36;;;;;;;33.57;21.00;;;;;;;;;;5052851;28;20392;-63
2023/12/03 08:42:02;;;;;;;34.07;20.70;;;;;;;;;;5052435;28;20394;-64
2023/12/03 08:44:28;;;;;;;31.00;19.23;;;;;;;;;;5052711;28;20399;-63
2023/12/03 08:46:53;;;;;;;31.95;19.88;;;;;;;;;;5052078;28;20401;-63
2023/12/03 08:49:18;;;;;;;32.17;20.20;;;;;;;;;;5052123;28;20398;-63
2023/12/03 08:51:44;;;;;;;29.30;19.53;;;;;;;;;;5052350;28;20489;-63
2023/12/03 08:54:09;;;;;;;32.83;19.50;;;;;;;;;;5039301;28;20402;-62
2023/12/03 08:56:35;;;;;;;33.00;20.07;;;;;;;;;;5052339;28;20900;-62
2023/12/03 08:59:00;;;;;;;30.03;19.37;;;;;;;;;;5052334;28;20954;-63
2023/12/03 09:01:25;;;;;;;27.97;18.47;;;;;;;;;;5050804;28;20450;-63
2023/12/03 09:03:51;;;;;;;28.13;17.83;;;;;;;;;;5051648;28;20444;-64
2023/12/03 09:06:17;;;;;;;31.17;19.50;;;;;;;;;;5051405;28;20495;-62
2023/12/03 09:08:42;;;;;;;27.80;17.60;;;;;;;;;;5041397;28;20393;-63
2023/12/03 09:11:07;;;;;;;30.43;18.83;;;;;;;;;;5051306;28;20397;-63
2023/12/03 09:13:33;;;;;;;29.20;18.67;;;;;;;;;;5051093;28;20402;-63
2023/12/03 09:15:58;;;;;;;29.95;18.42;;;;;;;;;;5039653;28;20409;-63
2023/12/03 09:18:23;;;;;;;27.30;17.53;;;;;;;;;;5050647;28;20393;-63
2023/12/03 09:20:49;;;;;;;28.20;17.40;;;;;;;;;;5052067;28;20413;-63
2023/12/03 09:23:14;;;;;;;28.80;18.80;;;;;;;;;;5050687;28;20466;-63
2023/12/03 09:25:40;;;;;;;27.47;18.20;;;;;;;;;;5051629;28;20393;-62
2023/12/03 09:28:05;;;;;;;28.00;17.53;;;;;;;;;;5051428;28;20921;-63
2023/12/03 09:30:30;;;;;;;25.23;16.65;;;;;;;;;;5050778;28;20465;-63
2023/12/03 09:32:56;;;;;;;26.07;17.30;;;;;;;;;;5051698;28;20401;-63
2023/12/03 09:35:21;;;;;;;25.83;16.60;;;;;;;;;;5050561;28;20815;-63
2023/12/03 09:37:46;;;;;;;25.43;16.93;;;;;;;;;;5051179;28;20440;-63
2023/12/03 09:40:13;;;;;;;25.20;17.52;;;;;;;;;;5050066;28;20919;-63
2023/12/03 09:42:39;;;;;;;23.92;16.02;;;;;;;;;;5050883;28;20393;-62
2023/12/03 09:45:06;;;;;;;24.50;16.38;;;;;;;;;;5050866;28;20405;-62
2023/12/03 09:47:34;;;;;;;24.30;15.75;;;;;;;;;;5051305;28;20748;-62
2023/12/03 09:50:00;;;;;;;24.38;15.70;;;;;;;;;;5053137;28;20444;-63
2023/12/03 09:52:25;;;;;;;25.75;16.17;;;;;;;;;;5058114;28;20392;-63
2023/12/03 09:54:51;;;;;;;23.67;15.43;;;;;;;;;;5062967;28;20395;-63
2023/12/03 09:57:16;;;;;;;22.67;15.52;;;;;;;;;;5070180;28;20399;-63
2023/12/03 09:59:48;;;;;;;22.23;14.90;;;;;;;;;;5064504;28;20976;-63
2023/12/03 10:02:13;;;;;;;23.05;15.43;;;;;;;;;;5029883;28;20407;-63
2023/12/03 10:04:38;;;;;;;23.15;15.30;;;;;;;;;;5046364;28;20410;-63
2023/12/03 10:07:04;;;;;;;23.83;15.10;;;;;;;;;;5047799;28;20418;-63
2023/12/03 10:09:29;;;;;;;20.80;13.77;;;;;;;;;;5047940;28;20479;-63
2023/12/03 10:11:55;;;;;;;20.67;13.77;;;;;;;;;;5045219;28;20922;-63
2023/12/03 10:14:20;;;;;;;21.57;14.63;;;;;;;;;;5047660;28;20448;-63
2023/12/03 10:16:47;;;;;;;21.73;13.50;;;;;;;;;;5049376;28;20401;-62
2023/12/03 10:19:19;;;;;;;21.65;14.02;;;;;;;;;;5044447;28;20464;-63
2023/12/03 10:21:48;;;;;;;20.90;14.20;;;;;;;;;;5027053;28;20766;-63
2023/12/03 10:24:14;;;;;;;21.60;14.03;;;;;;;;;;5052029;28;20900;-63
2023/12/03 10:26:46;;;;;;;26.70;17.87;;;;;;;;;;5046160;28;20408;-64
2023/12/03 10:29:11;;;;;;;21.55;14.68;;;;;;;;;;5027506;28;20420;-64
2023/12/03 10:31:36;;;;;;;20.03;13.03;;;;;;;;;;5028051;28;20480;-64
2023/12/03 10:34:04;;;;;;;19.83;13.57;;;;;;;;;;5030308;28;20490;-64
2023/12/03 10:36:30;;;;;;;20.43;13.97;;;;;;;;;;5029715;28;20408;-64
2023/12/03 10:38:55;;;;;;;19.30;12.65;;;;;;;;;;5028711;28;20962;-64
2023/12/03 10:41:21;;;;;;;19.50;13.57;;;;;;;;;;5027684;28;20402;-64
2023/12/03 10:43:46;;;;;;;18.73;13.13;;;;;;;;;;5013377;28;20777;-64
2023/12/03 10:46:12;;;;;;;19.80;13.67;;;;;;;;;;5027765;28;20444;-64
2023/12/03 10:48:37;;;;;;;21.88;14.00;;;;;;;;;;5029176;28;20995;-64
2023/12/03 10:51:04;;;;;;;18.80;13.23;;;;;;;;;;5029242;28;20403;-64
2023/12/03 10:53:30;;;;;;;20.50;13.70;;;;;;;;;;5030826;28;20410;-64
2023/12/03 10:55:56;;;;;;;22.13;14.70;;;;;;;;;;5028529;28;20417;-64
2023/12/03 10:58:21;;;;;;;21.45;13.77;;;;;;;;;;5021984;28;20423;-64
2023/12/03 11:00:51;;;;;;;20.67;14.00;;;;;;;;;;5029839;28;20401;-64
2023/12/03 11:03:17;;;;;;;20.33;13.85;;;;;;;;;;5011507;28;20467;-64
2023/12/03 11:05:47;;;;;;;21.17;13.77;;;;;;;;;;5028593;28;20456;-64
2023/12/03 11:08:12;;;;;;;20.60;13.77;;;;;;;;;;5019037;28;20802;-64
2023/12/03 11:10:39;;;;;;;21.37;14.07;;;;;;;;;;5030825;28;20514;-64
2023/12/03 11:13:09;;;;;;;20.33;13.48;;;;;;;;;;5028542;28;20555;-64
2023/12/03 11:15:34;;;;;;;21.30;14.30;;;;;;;;;;5027670;28;20418;-64
2023/12/03 11:17:59;;;;;;;21.43;13.90;;;;;;;;;;5019624;28;20599;-64
2023/12/03 11:20:27;;;;;;;20.07;13.40;;;;;;;;;;5013154;28;20402;-62
2023/12/03 11:23:05;;;;;;;21.20;13.65;;;;;;;;;;5035583;28;20421;-65
2023/12/03 11:25:32;;;;;;;22.33;13.83;;;;;;;;;;5028244;28;20907;-64
2023/12/03 11:27:57;;;;;;;20.88;13.50;;;;;;;;;;5013598;28;20419;-64
2023/12/03 11:30:39;;;;;;;20.57;13.50;;;;;;;;;;5021466;28;20402;-64
2023/12/03 11:33:07;;;;;;;20.35;13.18;;;;;;;;;;5027577;28;20401;-64
2023/12/03 11:35:33;;;;;;;22.33;13.63;;;;;;;;;;5028377;28;20486;-64
2023/12/03 11:37:58;;;;;;;19.63;13.20;;;;;;;;;;5028834;28;20417;-65
2023/12/03 11:40:31;;;;;;;19.33;12.80;;;;;;;;;;5021448;28;20405;-64
2023/12/03 11:42:56;;;;;;;18.98;12.35;;;;;;;;;;5027568;28;20402;-64
2023/12/03 11:45:25;;;;;;;18.87;12.70;;;;;;;;;;5031696;28;20735;-65
2023/12/03 11:48:04;;;;;;;20.83;12.90;;;;;;;;;;5028864;28;20409;-64
2023/12/03 11:50:30;;;;;;;18.50;12.15;;;;;;;;;;5027584;28;20498;-64
2023/12/03 11:52:55;;;;;;;20.30;12.77;;;;;;;;;;5030173;28;20766;-64
2023/12/03 11:55:21;;;;;;;19.40;11.93;;;;;;;;;;5029593;28;20479;-64
2023/12/03 11:57:46;;;;;;;18.17;11.63;;;;;;;;;;5021357;28;21409;-64
2023/12/03 12:00:12;;;;;;;18.63;12.03;;;;;;;;;;5027309;28;20399;-63
2023/12/03 12:02:37;;;;;;;18.80;12.57;;;;;;;;;;5030719;28;20421;-64
2023/12/03 12:05:03;;;;;;;19.53;12.77;;;;;;;;;;5023721;28;20425;-63
2023/12/03 12:07:28;;;;;;;19.90;13.20;;;;;;;;;;5028174;28;20400;-64
2023/12/03 12:09:53;;;;;;;19.40;12.82;;;;;;;;;;5017984;28;20891;-64
2023/12/03 12:12:19;;;;;;;18.53;12.53;;;;;;;;;;5028769;28;21241;-64
2023/12/03 12:14:50;;;;;;;19.57;13.10;;;;;;;;;;5021683;28;20417;-64
2023/12/03 12:17:15;;;;;;;18.10;12.23;;;;;;;;;;5027385;28;20806;-64
2023/12/03 12:19:47;;;;;;;18.13;12.23;;;;;;;;;;5030467;28;20403;-64
2023/12/03 12:22:12;;;;;;;17.13;11.65;;;;;;;;;;5027679;28;20402;-64
2023/12/03 12:24:38;;;;;;;17.23;11.20;;;;;;;;;;5026961;28;20481;-64
2023/12/03 12:27:03;;;;;;;18.73;11.70;;;;;;;;;;5029343;28;20861;-64
2023/12/03 12:29:28;;;;;;;18.37;11.97;;;;;;;;;;5028716;28;20413;-64
2023/12/03 12:31:54;;;;;;;17.10;11.90;;;;;;;;;;5026925;28;20561;-63
2023/12/03 12:34:21;;;;;;;18.38;11.77;;;;;;;;;;5019230;28;20396;-63
2023/12/03 12:36:47;;;;;;;21.65;12.43;;;;;;;;;;5012464;28;21101;-64
2023/12/03 12:39:24;;;;;;;18.70;11.27;;;;;;;;;;5027539;28;20423;-64
2023/12/03 12:41:49;;;;;;;17.00;11.60;;;;;;;;;;5036293;28;20409;-64
2023/12/03 12:44:15;;;;;;;18.23;12.10;;;;;;;;;;5030811;28;20430;-66
2023/12/03 12:46:52;;;;;;;17.17;11.23;;;;;;;;;;5027646;28;20428;-64
2023/12/03 12:49:18;;;;;;;16.87;11.27;;;;;;;;;;5027701;28;20410;-62
2023/12/03 12:51:43;;;;;;;18.42;11.77;;;;;;;;;;5036727;28;20420;-65
2023/12/03 12:54:09;;;;;;;17.37;11.33;;;;;;;;;;5034067;28;20401;-65
2023/12/03 12:56:34;;;;;;;17.47;11.90;;;;;;;;;;5031688;28;20405;-64
2023/12/03 12:58:59;;;;;;;18.50;11.30;;;;;;;;;;5031004;28;20423;-64
2023/12/03 13:01:25;;;;;;;16.33;10.73;;;;;;;;;;5031741;28;20520;-64
2023/12/03 13:03:50;;;;;;;16.83;11.43;;;;;;;;;;5014463;28;20420;-65
2023/12/03 13:06:15;;;;;;;18.53;12.10;;;;;;;;;;5030322;28;20436;-65
2023/12/03 13:08:41;;;;;;;19.15;11.77;;;;;;;;;;5031920;28;20437;-64
2023/12/03 13:11:07;;;;;;;18.10;11.70;;;;;;;;;;5032321;28;20401;-64
2023/12/03 13:13:32;;;;;;;18.70;10.90;;;;;;;;;;5030936;28;20402;-65
2023/12/03 13:15:57;;;;;;;18.13;11.13;;;;;;;;;;5031952;28;20414;-64
2023/12/03 13:18:23;;;;;;;19.00;11.50;;;;;;;;;;5031056;28;20514;-65
2023/12/03 13:20:49;;;;;;;18.60;12.10;;;;;;;;;;5030876;28;20399;-65
2023/12/03 13:23:16;;;;;;;16.55;11.07;;;;;;;;;;5030986;28;20495;-65
2023/12/03 13:25:41;;;;;;;16.90;11.27;;;;;;;;;;5033657;28;20512;-66
2023/12/03 13:28:07;;;;;;;17.10;11.10;;;;;;;;;;5034583;28;20919;-65
2023/12/03 13:30:32;;;;;;;17.13;11.43;;;;;;;;;;5030986;28;21363;-65
2023/12/03 13:33:04;;;;;;;17.40;11.57;;;;;;;;;;5035371;28;20437;-66
2023/12/03 13:35:30;;;;;;;18.10;11.05;;;;;;;;;;4984713;28;20417;-65
2023/12/03 13:37:56;;;;;;;17.30;11.43;;;;;;;;;;5038410;28;20405;-65
2023/12/03 13:40:21;;;;;;;17.20;11.20;;;;;;;;;;5036665;28;20753;-65
2023/12/03 13:42:51;;;;;;;18.40;11.83;;;;;;;;;;5033593;28;20416;-65
2023/12/03 13:45:17;;;;;;;17.17;11.35;;;;;;;;;;5029504;28;20831;-66
2023/12/03 13:47:42;;;;;;;16.50;10.90;;;;;;;;;;5028964;28;21233;-67
2023/12/03 13:50:08;;;;;;;16.13;10.80;;;;;;;;;;5029300;28;20449;-67
2023/12/03 13:52:33;;;;;;;16.80;10.80;;;;;;;;;;5026963;28;20482;-67
2023/12/03 13:54:58;;;;;;;16.33;10.80;;;;;;;;;;5019516;28;20496;-67
2023/12/03 13:57:24;;;;;;;17.40;11.57;;;;;;;;;;5033255;28;20932;-67
2023/12/03 13:59:50;;;;;;;17.33;11.23;;;;;;;;;;5025201;28;20407;-67
2023/12/03 14:02:15;;;;;;;17.40;11.10;;;;;;;;;;5024326;28;20618;-66
2023/12/03 14:04:41;;;;;;;15.75;10.35;;;;;;;;;;5024805;28;20411;-67
2023/12/03 14:07:06;;;;;;;15.10;10.30;;;;;;;;;;5005091;28;20455;-66